Terminal Aerodrome Forecast
Issued by NWS

Home | Current Version | Previous Version | Text Only | Print | Product List | Glossary On
Versions: 1 2 3 4 5 6 7 8 9 10 11 12 13 14 15 16
094
FTUS41 KBGM 171727
TAFELM
TAF
KELM 171727Z 1718/1818 14006KT 3SM -RA BR OVC008 WS020/24040KT
     FM172300 15006KT 5SM -RA BR OVC012
     FM180200 19006KT 2SM -RA BR OVC010
     FM180800 VRB03KT 1 1/2SM -RA BR OVC006
     FM181100 25004KT P6SM -DZ OVC008
     FM181700 26005KT P6SM OVC012=

USA.gov is the U.S. government's official web portal to all federal, state and local government web resources and services.